Svobodnyj, Russia
Current Conditions -  °F | °C
As of 9:00 PM on Monday 26 Jan 2015 (Local Time) from UHBB Reporting Station
Clear Clear  
Wind Chill: -8°   Ceiling: Unl
Heat Index: -8°   Visibility: 6mi
Dew Point: -17°   Wind: 2mph
Humidity: 65%   Direction: NA
Pressure: 30.18"   Gusts: NA
Location:  51.4°N, 128.13°E
Report Text: UHBB 261200Z VRB01MPS CAVOK M22/M27 Q1022 NOSIG RMK QFE749/099936410260
Loading
Personal Weather Stations






























Interactive Weather Map New forecast layout! Learn more

10-Day Weather Forecast

Advertisements
Track Severe Weather on mobile